sensor_id;sensor_type;location;lat;lon;timestamp;pressure;altitude;pressure_sealevel;temperature;humidity
9721;BME280;4899;42.644;23.366;2022-07-04T00:00:25;94561.28;;;20.10;100.00
9721;BME280;4899;42.644;23.366;2022-07-04T00:02:52;94582.78;;;20.33;100.00
9721;BME280;4899;42.644;23.366;2022-07-04T00:05:20;94574.72;;;20.12;100.00
9721;BME280;4899;42.644;23.366;2022-07-04T00:07:48;94568.38;;;20.09;100.00
9721;BME280;4899;42.644;23.366;2022-07-04T00:10:17;94570.47;;;19.96;100.00
9721;BME280;4899;42.644;23.366;2022-07-04T00:12:44;94581.38;;;20.06;100.00
9721;BME280;4899;42.644;23.366;2022-07-04T00:15:12;94581.31;;;19.98;100.00
9721;BME280;4899;42.644;23.366;2022-07-04T00:17:39;94580.59;;;20.02;100.00
9721;BME280;4899;42.644;23.366;2022-07-04T00:20:07;94573.09;;;20.00;100.00
9721;BME280;4899;42.644;23.366;2022-07-04T00:22:36;94586.78;;;19.86;100.00
9721;BME280;4899;42.644;23.366;2022-07-04T00:25:04;94552.19;;;19.63;100.00
9721;BME280;4899;42.644;23.366;2022-07-04T00:27:30;94567.16;;;19.66;100.00
9721;BME280;4899;42.644;23.366;2022-07-04T00:29:57;94573.91;;;19.71;100.00
9721;BME280;4899;42.644;23.366;2022-07-04T00:32:24;94547.16;;;19.51;100.00
9721;BME280;4899;42.644;23.366;2022-07-04T00:34:51;94564.31;;;19.52;100.00
9721;BME280;4899;42.644;23.366;2022-07-04T00:37:18;94518.03;;;19.15;100.00
9721;BME280;4899;42.644;23.366;2022-07-04T00:39:49;94513.22;;;19.17;100.00
9721;BME280;4899;42.644;23.366;2022-07-04T00:42:16;94556.09;;;19.50;100.00
9721;BME280;4899;42.644;23.366;2022-07-04T00:44:43;94556.47;;;19.48;100.00
9721;BME280;4899;42.644;23.366;2022-07-04T00:47:10;94545.34;;;19.25;100.00
9721;BME280;4899;42.644;23.366;2022-07-04T00:49:37;94550.47;;;19.48;100.00
9721;BME280;4899;42.644;23.366;2022-07-04T00:52:06;94551.13;;;19.38;100.00
9721;BME280;4899;42.644;23.366;2022-07-04T00:54:34;94553.34;;;19.35;100.00
9721;BME280;4899;42.644;23.366;2022-07-04T00:57:03;94545.31;;;19.21;100.00
9721;BME280;4899;42.644;23.366;2022-07-04T00:59:30;94519.38;;;19.05;100.00
9721;BME280;4899;42.644;23.366;2022-07-04T01:01:57;94553.22;;;19.28;100.00
9721;BME280;4899;42.644;23.366;2022-07-04T01:04:24;94543.06;;;19.20;100.00
9721;BME280;4899;42.644;23.366;2022-07-04T01:06:52;94551.72;;;19.27;100.00
9721;BME280;4899;42.644;23.366;2022-07-04T01:09:19;94555.44;;;19.26;100.00
9721;BME280;4899;42.644;23.366;2022-07-04T01:11:48;94535.19;;;19.16;100.00
9721;BME280;4899;42.644;23.366;2022-07-04T01:14:17;94520.84;;;19.03;100.00
9721;BME280;4899;42.644;23.366;2022-07-04T01:16:44;94517.09;;;19.00;100.00
9721;BME280;4899;42.644;23.366;2022-07-04T01:19:10;94546.81;;;19.22;100.00
9721;BME280;4899;42.644;23.366;2022-07-04T01:21:39;94545.59;;;19.13;100.00
9721;BME280;4899;42.644;23.366;2022-07-04T01:24:06;94545.53;;;19.09;100.00
9721;BME280;4899;42.644;23.366;2022-07-04T01:26:33;94553.66;;;19.04;100.00
9721;BME280;4899;42.644;23.366;2022-07-04T01:29:00;94553.59;;;19.00;100.00
9721;BME280;4899;42.644;23.366;2022-07-04T01:31:27;94549.22;;;19.08;100.00
9721;BME280;4899;42.644;23.366;2022-07-04T01:33:54;94548.44;;;19.04;100.00
9721;BME280;4899;42.644;23.366;2022-07-04T01:36:21;94539.84;;;19.03;100.00
9721;BME280;4899;42.644;23.366;2022-07-04T01:38:50;94542.09;;;19.05;100.00
9721;BME280;4899;42.644;23.366;2022-07-04T01:41:17;94544.88;;;18.89;100.00
9721;BME280;4899;42.644;23.366;2022-07-04T01:43:43;94554.97;;;18.91;100.00
9721;BME280;4899;42.644;23.366;2022-07-04T01:46:10;94556.06;;;18.90;100.00
9721;BME280;4899;42.644;23.366;2022-07-04T01:48:37;94563.88;;;18.90;100.00
9721;BME280;4899;42.644;23.366;2022-07-04T01:51:04;94560.47;;;18.86;100.00
9721;BME280;4899;42.644;23.366;2022-07-04T01:53:35;94558.97;;;18.85;100.00
9721;BME280;4899;42.644;23.366;2022-07-04T01:56:04;94551.56;;;18.87;100.00
9721;BME280;4899;42.644;23.366;2022-07-04T01:58:31;94538.41;;;18.80;100.00
9721;BME280;4899;42.644;23.366;2022-07-04T02:00:58;94554.56;;;18.89;100.00
9721;BME280;4899;42.644;23.366;2022-07-04T02:03:42;94546.22;;;18.80;100.00
9721;BME280;4899;42.644;23.366;2022-07-04T02:06:10;94556.63;;;18.80;100.00
9721;BME280;4899;42.644;23.366;2022-07-04T02:08:37;94558.06;;;18.73;100.00
9721;BME280;4899;42.644;23.366;2022-07-04T02:11:23;94554.59;;;18.66;100.00
9721;BME280;4899;42.644;23.366;2022-07-04T02:13:50;94559.63;;;18.59;100.00
9721;BME280;4899;42.644;23.366;2022-07-04T02:16:16;94560.34;;;18.56;100.00
9721;BME280;4899;42.644;23.366;2022-07-04T02:18:42;94529.44;;;18.31;100.00
9721;BME280;4899;42.644;23.366;2022-07-04T02:21:09;94558.38;;;18.49;100.00
9721;BME280;4899;42.644;23.366;2022-07-04T02:23:36;94564.28;;;18.46;100.00
9721;BME280;4899;42.644;23.366;2022-07-04T02:26:04;94542.06;;;18.29;100.00
9721;BME280;4899;42.644;23.366;2022-07-04T02:28:32;94562.84;;;18.26;100.00
9721;BME280;4899;42.644;23.366;2022-07-04T02:30:59;94569.44;;;18.42;100.00
9721;BME280;4899;42.644;23.366;2022-07-04T02:33:26;94568.66;;;18.38;100.00
9721;BME280;4899;42.644;23.366;2022-07-04T02:35:53;94568.16;;;18.33;100.00
9721;BME280;4899;42.644;23.366;2022-07-04T02:38:19;94568.84;;;18.30;100.00
9721;BME280;4899;42.644;23.366;2022-07-04T02:40:46;94560.56;;;18.24;100.00
9721;BME280;4899;42.644;23.366;2022-07-04T02:43:13;94558.31;;;18.23;100.00
9721;BME280;4899;42.644;23.366;2022-07-04T02:45:41;94567.94;;;18.19;100.00
9721;BME280;4899;42.644;23.366;2022-07-04T02:48:08;94532.16;;;17.93;100.00
9721;BME280;4899;42.644;23.366;2022-07-04T02:50:35;94571.91;;;18.12;100.00
9721;BME280;4899;42.644;23.366;2022-07-04T02:53:02;94551.41;;;17.88;100.00
9721;BME280;4899;42.644;23.366;2022-07-04T02:55:29;94565.34;;;17.99;100.00
9721;BME280;4899;42.644;23.366;2022-07-04T02:57:55;94538.94;;;17.78;100.00
9721;BME280;4899;42.644;23.366;2022-07-04T03:00:22;94584.03;;;18.05;100.00
9721;BME280;4899;42.644;23.366;2022-07-04T03:02:50;94585.47;;;18.02;100.00
9721;BME280;4899;42.644;23.366;2022-07-04T03:05:17;94565.22;;;17.92;100.00
9721;BME280;4899;42.644;23.366;2022-07-04T03:07:44;94589.75;;;17.91;100.00
9721;BME280;4899;42.644;23.366;2022-07-04T03:10:11;94577.16;;;17.93;100.00
9721;BME280;4899;42.644;23.366;2022-07-04T03:12:38;94568.72;;;17.80;100.00
9721;BME280;4899;42.644;23.366;2022-07-04T03:15:06;94574.75;;;17.85;100.00
9721;BME280;4899;42.644;23.366;2022-07-04T03:17:33;94549.91;;;17.68;100.00
9721;BME280;4899;42.644;23.366;2022-07-04T03:20:01;94600.41;;;18.05;100.00
9721;BME280;4899;42.644;23.366;2022-07-04T03:22:28;94568.78;;;17.84;100.00
9721;BME280;4899;42.644;23.366;2022-07-04T03:24:55;94560.44;;;17.75;100.00
9721;BME280;4899;42.644;23.366;2022-07-04T03:27:21;94572.63;;;17.71;100.00
9721;BME280;4899;42.644;23.366;2022-07-04T03:29:48;94574.94;;;17.76;100.00
9721;BME280;4899;42.644;23.366;2022-07-04T03:32:15;94579.19;;;17.84;100.00
9721;BME280;4899;42.644;23.366;2022-07-04T03:34:42;94578.59;;;17.91;100.00
9721;BME280;4899;42.644;23.366;2022-07-04T03:37:10;94508.25;;;17.48;100.00
9721;BME280;4899;42.644;23.366;2022-07-04T03:39:37;94572.34;;;17.76;100.00
9721;BME280;4899;42.644;23.366;2022-07-04T03:42:05;94520.91;;;17.50;100.00
9721;BME280;4899;42.644;23.366;2022-07-04T03:44:32;94596.03;;;18.09;100.00
9721;BME280;4899;42.644;23.366;2022-07-04T03:46:59;94594.38;;;18.01;100.00
9721;BME280;4899;42.644;23.366;2022-07-04T03:49:25;94588.88;;;18.26;100.00
9721;BME280;4899;42.644;23.366;2022-07-04T03:51:52;94580.03;;;18.30;100.00
9721;BME280;4899;42.644;23.366;2022-07-04T03:54:20;94596.59;;;18.41;100.00
9721;BME280;4899;42.644;23.366;2022-07-04T03:56:47;94581.78;;;18.45;100.00
9721;BME280;4899;42.644;23.366;2022-07-04T03:59:14;94554.88;;;18.38;100.00
9721;BME280;4899;42.644;23.366;2022-07-04T04:01:41;94552.97;;;18.35;100.00
9721;BME280;4899;42.644;23.366;2022-07-04T04:04:08;94577.69;;;18.67;100.00
9721;BME280;4899;42.644;23.366;2022-07-04T04:06:52;94566.72;;;18.58;100.00
9721;BME280;4899;42.644;23.366;2022-07-04T04:09:19;94539.84;;;18.31;100.00
9721;BME280;4899;42.644;23.366;2022-07-04T04:11:47;94577.84;;;18.78;100.00
9721;BME280;4899;42.644;23.366;2022-07-04T04:14:14;94574.78;;;18.72;100.00
9721;BME280;4899;42.644;23.366;2022-07-04T04:16:41;94590.06;;;18.97;100.00
9721;BME280;4899;42.644;23.366;2022-07-04T04:19:08;94574.19;;;18.83;100.00
9721;BME280;4899;42.644;23.366;2022-07-04T04:21:35;94574.09;;;19.02;100.00
9721;BME280;4899;42.644;23.366;2022-07-04T04:24:03;94584.94;;;19.04;100.00
9721;BME280;4899;42.644;23.366;2022-07-04T04:26:30;94574.09;;;19.02;100.00
9721;BME280;4899;42.644;23.366;2022-07-04T04:28:58;94581.97;;;19.05;100.00
9721;BME280;4899;42.644;23.366;2022-07-04T04:31:25;94570.88;;;19.09;100.00
9721;BME280;4899;42.644;23.366;2022-07-04T04:33:52;94595.00;;;19.32;100.00
9721;BME280;4899;42.644;23.366;2022-07-04T04:36:19;94612.28;;;19.40;100.00
9721;BME280;4899;42.644;23.366;2022-07-04T04:38:46;94577.00;;;19.23;100.00
9721;BME280;4899;42.644;23.366;2022-07-04T04:41:13;94562.03;;;19.17;100.00
9721;BME280;4899;42.644;23.366;2022-07-04T04:43:41;94608.81;;;19.59;100.00
9721;BME280;4899;42.644;23.366;2022-07-04T04:46:10;94605.78;;;19.57;100.00
9721;BME280;4899;42.644;23.366;2022-07-04T04:48:37;94614.88;;;19.66;100.00
9721;BME280;4899;42.644;23.366;2022-07-04T04:51:03;94594.66;;;19.60;100.00
9721;BME280;4899;42.644;23.366;2022-07-04T04:53:30;94547.59;;;19.26;100.00
9721;BME280;4899;42.644;23.366;2022-07-04T04:56:27;94560.22;;;19.51;100.00
9721;BME280;4899;42.644;23.366;2022-07-04T04:58:54;94599.34;;;19.77;100.00
9721;BME280;4899;42.644;23.366;2022-07-04T05:01:23;94535.88;;;19.40;100.00
9721;BME280;4899;42.644;23.366;2022-07-04T05:03:49;94571.25;;;19.67;100.00
9721;BME280;4899;42.644;23.366;2022-07-04T05:06:16;94580.75;;;19.82;100.00
9721;BME280;4899;42.644;23.366;2022-07-04T05:08:44;94607.19;;;20.11;100.00
9721;BME280;4899;42.644;23.366;2022-07-04T05:11:11;94593.63;;;20.02;100.00
9721;BME280;4899;42.644;23.366;2022-07-04T05:13:38;94602.19;;;19.98;100.00
9721;BME280;4899;42.644;23.366;2022-07-04T05:16:05;94585.47;;;20.07;100.00
9721;BME280;4899;42.644;23.366;2022-07-04T05:18:33;94568.63;;;20.01;100.00
9721;BME280;4899;42.644;23.366;2022-07-04T05:21:00;94512.06;;;19.78;100.00
9721;BME280;4899;42.644;23.366;2022-07-04T05:23:27;94563.22;;;20.20;100.00
9721;BME280;4899;42.644;23.366;2022-07-04T05:25:54;94552.34;;;20.11;100.00
9721;BME280;4899;42.644;23.366;2022-07-04T05:28:20;94603.97;;;20.62;100.00
9721;BME280;4899;42.644;23.366;2022-07-04T05:30:47;94602.94;;;20.77;100.00
9721;BME280;4899;42.644;23.366;2022-07-04T05:33:14;94589.09;;;20.73;100.00
9721;BME280;4899;42.644;23.366;2022-07-04T05:35:43;94607.53;;;20.87;100.00
9721;BME280;4899;42.644;23.366;2022-07-04T05:38:10;94581.56;;;20.64;100.00
9721;BME280;4899;42.644;23.366;2022-07-04T05:40:37;94612.84;;;21.01;100.00
9721;BME280;4899;42.644;23.366;2022-07-04T05:43:03;94618.94;;;21.16;100.00
9721;BME280;4899;42.644;23.366;2022-07-04T05:45:30;94598.66;;;21.02;100.00
9721;BME280;4899;42.644;23.366;2022-07-04T05:47:57;94604.72;;;21.10;100.00
9721;BME280;4899;42.644;23.366;2022-07-04T05:50:24;94602.19;;;21.24;100.00
9721;BME280;4899;42.644;23.366;2022-07-04T05:52:52;94586.81;;;21.15;100.00
9721;BME280;4899;42.644;23.366;2022-07-04T05:55:19;94618.41;;;21.44;100.00
9721;BME280;4899;42.644;23.366;2022-07-04T05:57:46;94539.91;;;20.89;100.00
9721;BME280;4899;42.644;23.366;2022-07-04T06:00:13;94619.16;;;21.48;100.00
9721;BME280;4899;42.644;23.366;2022-07-04T06:02:40;94580.44;;;21.13;100.00
9721;BME280;4899;42.644;23.366;2022-07-04T06:05:08;94591.75;;;21.31;100.00
9721;BME280;4899;42.644;23.366;2022-07-04T06:07:35;94606.84;;;21.52;100.00
9721;BME280;4899;42.644;23.366;2022-07-04T06:10:05;94624.91;;;21.75;100.00
9721;BME280;4899;42.644;23.366;2022-07-04T06:12:32;94601.69;;;21.66;100.00
9721;BME280;4899;42.644;23.366;2022-07-04T06:14:59;94626.50;;;21.94;100.00
9721;BME280;4899;42.644;23.366;2022-07-04T06:17:26;94606.28;;;21.91;100.00
9721;BME280;4899;42.644;23.366;2022-07-04T06:19:53;94608.94;;;22.05;100.00
9721;BME280;4899;42.644;23.366;2022-07-04T06:22:20;94619.09;;;22.10;100.00
9721;BME280;4899;42.644;23.366;2022-07-04T06:24:46;94612.34;;;22.09;100.00
9721;BME280;4899;42.644;23.366;2022-07-04T06:27:15;94611.63;;;22.12;100.00
9721;BME280;4899;42.644;23.366;2022-07-04T06:29:42;94614.25;;;22.23;100.00
9721;BME280;4899;42.644;23.366;2022-07-04T06:32:08;94613.91;;;22.31;100.00
9721;BME280;4899;42.644;23.366;2022-07-04T06:34:35;94610.91;;;22.33;100.00
9721;BME280;4899;42.644;23.366;2022-07-04T06:37:20;94598.94;;;22.35;100.00
9721;BME280;4899;42.644;23.366;2022-07-04T06:39:47;94575.34;;;22.32;100.00
9721;BME280;4899;42.644;23.366;2022-07-04T06:42:15;94600.47;;;22.58;100.00
9721;BME280;4899;42.644;23.366;2022-07-04T06:44:42;94587.34;;;22.58;100.00
9721;BME280;4899;42.644;23.366;2022-07-04T06:47:09;94620.38;;;22.87;100.00
9721;BME280;4899;42.644;23.366;2022-07-04T06:49:36;94601.19;;;22.80;100.00
9721;BME280;4899;42.644;23.366;2022-07-04T06:52:03;94598.19;;;22.78;95.41
9721;BME280;4899;42.644;23.366;2022-07-04T06:54:30;94603.50;;;22.81;95.59
9721;BME280;4899;42.644;23.366;2022-07-04T06:56:57;94608.75;;;22.85;95.79
9721;BME280;4899;42.644;23.366;2022-07-04T06:59:25;94606.50;;;22.90;97.93
9721;BME280;4899;42.644;23.366;2022-07-04T07:01:52;94582.50;;;22.85;100.00
9721;BME280;4899;42.644;23.366;2022-07-04T07:04:19;94551.75;;;22.71;97.25
9721;BME280;4899;42.644;23.366;2022-07-04T07:06:46;94590.00;;;23.08;100.00
9721;BME280;4899;42.644;23.366;2022-07-04T07:09:13;94592.97;;;23.17;98.27
9721;BME280;4899;42.644;23.366;2022-07-04T07:11:40;94597.44;;;23.23;89.05
9721;BME280;4899;42.644;23.366;2022-07-04T07:14:06;94561.88;;;23.08;87.18
9721;BME280;4899;42.644;23.366;2022-07-04T07:16:35;94513.56;;;22.84;87.43
9721;BME280;4899;42.644;23.366;2022-07-04T07:19:02;94597.41;;;23.48;93.43
9721;BME280;4899;42.644;23.366;2022-07-04T07:21:29;94581.66;;;23.45;93.62
9721;BME280;4899;42.644;23.366;2022-07-04T07:23:56;94589.16;;;23.60;95.05
9721;BME280;4899;42.644;23.366;2022-07-04T07:26:22;94591.38;;;23.66;93.11
9721;BME280;4899;42.644;23.366;2022-07-04T07:28:49;94589.44;;;23.84;95.12
9721;BME280;4899;42.644;23.366;2022-07-04T07:31:16;94563.53;;;23.86;90.15
9721;BME280;4899;42.644;23.366;2022-07-04T07:33:45;94586.31;;;24.10;86.91
9721;BME280;4899;42.644;23.366;2022-07-04T07:36:11;94551.84;;;23.94;89.45
9721;BME280;4899;42.644;23.366;2022-07-04T07:38:38;94537.53;;;24.06;89.99
9721;BME280;4899;42.644;23.366;2022-07-04T07:41:07;94561.41;;;24.25;92.61
9721;BME280;4899;42.644;23.366;2022-07-04T07:43:34;94569.91;;;24.51;96.08
9721;BME280;4899;42.644;23.366;2022-07-04T07:46:02;94533.56;;;24.39;99.49
9721;BME280;4899;42.644;23.366;2022-07-04T07:48:29;94552.63;;;24.50;87.67
9721;BME280;4899;42.644;23.366;2022-07-04T07:50:57;94581.31;;;24.85;89.71
9721;BME280;4899;42.644;23.366;2022-07-04T07:53:24;94537.03;;;24.73;94.12
9721;BME280;4899;42.644;23.366;2022-07-04T07:55:51;94570.88;;;25.20;100.00
9721;BME280;4899;42.644;23.366;2022-07-04T07:58:17;94557.38;;;25.14;87.32
9721;BME280;4899;42.644;23.366;2022-07-04T08:00:45;94575.31;;;25.30;83.31
9721;BME280;4899;42.644;23.366;2022-07-04T08:03:12;94561.75;;;25.31;83.00
9721;BME280;4899;42.644;23.366;2022-07-04T08:05:58;94555.63;;;25.38;84.70
9721;BME280;4899;42.644;23.366;2022-07-04T08:08:25;94572.75;;;25.57;80.57
9721;BME280;4899;42.644;23.366;2022-07-04T08:10:51;94573.41;;;25.64;80.92
9721;BME280;4899;42.644;23.366;2022-07-04T08:13:18;94528.03;;;25.50;83.21
9721;BME280;4899;42.644;23.366;2022-07-04T08:15:45;94576.03;;;25.98;80.18
9721;BME280;4899;42.644;23.366;2022-07-04T08:18:13;94568.13;;;25.98;78.53
9721;BME280;4899;42.644;23.366;2022-07-04T08:20:40;94570.88;;;26.18;78.99
9721;BME280;4899;42.644;23.366;2022-07-04T08:23:08;94570.06;;;26.21;75.54
9721;BME280;4899;42.644;23.366;2022-07-04T08:25:35;94554.75;;;26.13;78.97
9721;BME280;4899;42.644;23.366;2022-07-04T08:28:03;94531.25;;;25.95;78.49
9721;BME280;4899;42.644;23.366;2022-07-04T08:30:30;94551.91;;;26.27;81.07
9721;BME280;4899;42.644;23.366;2022-07-04T08:32:56;94549.09;;;26.41;77.60
9721;BME280;4899;42.644;23.366;2022-07-04T08:35:23;94526.84;;;26.42;76.08
9721;BME280;4899;42.644;23.366;2022-07-04T08:37:50;94554.41;;;26.64;74.73
9721;BME280;4899;42.644;23.366;2022-07-04T08:40:21;94552.91;;;26.87;77.37
9721;BME280;4899;42.644;23.366;2022-07-04T08:42:48;94521.75;;;26.78;79.51
9721;BME280;4899;42.644;23.366;2022-07-04T08:45:17;94563.81;;;27.12;73.85
9721;BME280;4899;42.644;23.366;2022-07-04T08:47:44;94552.63;;;27.05;76.41
9721;BME280;4899;42.644;23.366;2022-07-04T08:50:19;94557.44;;;27.10;78.92
9721;BME280;4899;42.644;23.366;2022-07-04T08:53:00;94525.94;;;26.99;79.99
9721;BME280;4899;42.644;23.366;2022-07-04T08:55:29;94551.16;;;27.23;80.13
9721;BME280;4899;42.644;23.366;2022-07-04T08:58:12;94527.03;;;27.21;77.13
9721;BME280;4899;42.644;23.366;2022-07-04T09:00:56;94505.56;;;27.19;78.59
9721;BME280;4899;42.644;23.366;2022-07-04T09:03:25;94552.19;;;27.69;87.59
9721;BME280;4899;42.644;23.366;2022-07-04T09:05:53;94496.75;;;27.46;80.68
9721;BME280;4899;42.644;23.366;2022-07-04T09:08:21;94548.16;;;28.01;75.97
9721;BME280;4899;42.644;23.366;2022-07-04T09:10:51;94538.06;;;27.96;73.39
9721;BME280;4899;42.644;23.366;2022-07-04T09:13:19;94542.69;;;27.92;75.89
9721;BME280;4899;42.644;23.366;2022-07-04T09:15:48;94553.78;;;28.03;77.05
9721;BME280;4899;42.644;23.366;2022-07-04T09:18:23;94549.66;;;28.02;73.96
9721;BME280;4899;42.644;23.366;2022-07-04T09:20:52;94550.88;;;27.97;78.31
9721;BME280;4899;42.644;23.366;2022-07-04T09:23:21;94553.06;;;28.18;77.93
9721;BME280;4899;42.644;23.366;2022-07-04T09:26:06;94538.91;;;28.29;78.94
9721;BME280;4899;42.644;23.366;2022-07-04T09:28:33;94551.47;;;28.41;72.26
9721;BME280;4899;42.644;23.366;2022-07-04T09:31:01;94515.06;;;28.29;75.98
9721;BME280;4899;42.644;23.366;2022-07-04T09:33:46;94544.19;;;28.61;71.07
9721;BME280;4899;42.644;23.366;2022-07-04T09:36:15;94552.53;;;28.76;68.68
9721;BME280;4899;42.644;23.366;2022-07-04T09:38:44;94549.38;;;28.97;68.61
9721;BME280;4899;42.644;23.366;2022-07-04T09:41:12;94543.91;;;29.04;85.07
9721;BME280;4899;42.644;23.366;2022-07-04T09:44:02;94536.81;;;28.85;77.74
9721;BME280;4899;42.644;23.366;2022-07-04T09:46:30;94523.41;;;28.60;80.19
9721;BME280;4899;42.644;23.366;2022-07-04T09:48:57;94506.47;;;28.57;72.67
9721;BME280;4899;42.644;23.366;2022-07-04T09:51:38;94541.31;;;29.17;65.48
9721;BME280;4899;42.644;23.366;2022-07-04T09:54:16;94545.31;;;29.38;66.90
9721;BME280;4899;42.644;23.366;2022-07-04T09:56:46;94526.06;;;29.50;65.92
9721;BME280;4899;42.644;23.366;2022-07-04T09:59:13;94523.13;;;29.61;66.40
9721;BME280;4899;42.644;23.366;2022-07-04T10:01:41;94530.88;;;29.68;68.70
9721;BME280;4899;42.644;23.366;2022-07-04T10:04:08;94506.38;;;29.35;63.74
9721;BME280;4899;42.644;23.366;2022-07-04T10:06:40;94514.53;;;29.28;68.79
9721;BME280;4899;42.644;23.366;2022-07-04T10:09:09;94529.78;;;29.53;66.76
9721;BME280;4899;42.644;23.366;2022-07-04T10:11:38;94497.78;;;29.31;70.55
9721;BME280;4899;42.644;23.366;2022-07-04T10:14:09;94516.28;;;29.47;69.18
9721;BME280;4899;42.644;23.366;2022-07-04T10:16:36;94491.09;;;29.26;70.34
9721;BME280;4899;42.644;23.366;2022-07-04T10:19:04;94507.94;;;29.61;74.76
9721;BME280;4899;42.644;23.366;2022-07-04T10:21:32;94486.22;;;29.66;64.49
9721;BME280;4899;42.644;23.366;2022-07-04T10:24:01;94538.16;;;30.18;61.82
9721;BME280;4899;42.644;23.366;2022-07-04T10:26:30;94529.88;;;30.16;68.73
9721;BME280;4899;42.644;23.366;2022-07-04T10:28:58;94505.41;;;29.70;64.26
9721;BME280;4899;42.644;23.366;2022-07-04T10:31:28;94529.41;;;29.80;60.56
9721;BME280;4899;42.644;23.366;2022-07-04T10:33:56;94520.81;;;29.76;61.65
9721;BME280;4899;42.644;23.366;2022-07-04T10:36:25;94529.53;;;30.01;62.51
9721;BME280;4899;42.644;23.366;2022-07-04T10:38:57;94511.19;;;30.20;65.00
9721;BME280;4899;42.644;23.366;2022-07-04T10:41:25;94509.22;;;30.58;64.46
9721;BME280;4899;42.644;23.366;2022-07-04T10:44:03;94493.38;;;30.80;59.73
9721;BME280;4899;42.644;23.366;2022-07-04T10:46:36;94516.28;;;31.21;59.39
9721;BME280;4899;42.644;23.366;2022-07-04T10:49:06;94499.28;;;31.41;58.91
9721;BME280;4899;42.644;23.366;2022-07-04T10:51:40;94516.50;;;32.11;55.98
9721;BME280;4899;42.644;23.366;2022-07-04T10:54:10;94514.31;;;32.77;50.46
9721;BME280;4899;42.644;23.366;2022-07-04T10:56:43;94505.63;;;34.25;48.51
9721;BME280;4899;42.644;23.366;2022-07-04T10:59:12;94515.25;;;36.01;45.23
9721;BME280;4899;42.644;23.366;2022-07-04T11:01:49;94518.00;;;37.43;43.59
9721;BME280;4899;42.644;23.366;2022-07-04T11:04:53;94517.69;;;38.73;39.04
9721;BME280;4899;42.644;23.366;2022-07-04T11:07:22;94519.09;;;39.39;38.46
9721;BME280;4899;42.644;23.366;2022-07-04T11:10:19;94495.63;;;39.62;37.45
9721;BME280;4899;42.644;23.366;2022-07-04T11:13:14;94501.13;;;40.65;35.99
9721;BME280;4899;42.644;23.366;2022-07-04T11:16:05;94516.69;;;41.82;34.78
9721;BME280;4899;42.644;23.366;2022-07-04T11:18:47;94499.03;;;42.05;34.10
9721;BME280;4899;42.644;23.366;2022-07-04T11:21:22;94491.50;;;42.90;33.07
9721;BME280;4899;42.644;23.366;2022-07-04T11:23:55;94515.34;;;43.62;31.94
9721;BME280;4899;42.644;23.366;2022-07-04T11:26:23;94518.44;;;43.71;31.75
9721;BME280;4899;42.644;23.366;2022-07-04T11:28:50;94506.94;;;43.65;30.47
9721;BME280;4899;42.644;23.366;2022-07-04T11:31:17;94507.81;;;44.45;30.01
9721;BME280;4899;42.644;23.366;2022-07-04T11:33:46;94498.19;;;44.57;30.69
9721;BME280;4899;42.644;23.366;2022-07-04T11:36:15;94507.91;;;44.13;30.60
9721;BME280;4899;42.644;23.366;2022-07-04T11:38:54;94507.63;;;43.84;31.30
9721;BME280;4899;42.644;23.366;2022-07-04T11:41:23;94504.38;;;43.86;29.86
9721;BME280;4899;42.644;23.366;2022-07-04T11:44:09;94501.91;;;44.01;30.05
9721;BME280;4899;42.644;23.366;2022-07-04T11:47:02;94508.19;;;44.09;29.91
9721;BME280;4899;42.644;23.366;2022-07-04T11:49:31;94494.78;;;43.40;31.18
9721;BME280;4899;42.644;23.366;2022-07-04T11:51:58;94483.13;;;42.45;32.48
9721;BME280;4899;42.644;23.366;2022-07-04T11:54:25;94487.25;;;43.14;31.05
9721;BME280;4899;42.644;23.366;2022-07-04T11:56:52;94481.16;;;43.91;31.80
9721;BME280;4899;42.644;23.366;2022-07-04T11:59:34;94447.88;;;44.56;29.37
9721;BME280;4899;42.644;23.366;2022-07-04T12:02:10;94469.88;;;45.26;29.66
9721;BME280;4899;42.644;23.366;2022-07-04T12:04:39;94466.28;;;45.73;27.73
9721;BME280;4899;42.644;23.366;2022-07-04T12:07:11;94454.56;;;45.02;29.50
9721;BME280;4899;42.644;23.366;2022-07-04T12:09:39;94465.16;;;44.93;28.40
9721;BME280;4899;42.644;23.366;2022-07-04T12:12:07;94452.97;;;44.73;30.32
9721;BME280;4899;42.644;23.366;2022-07-04T12:14:34;94453.44;;;44.98;30.07
9721;BME280;4899;42.644;23.366;2022-07-04T12:17:14;94458.50;;;45.56;29.65
9721;BME280;4899;42.644;23.366;2022-07-04T12:19:56;94469.53;;;46.21;27.54
9721;BME280;4899;42.644;23.366;2022-07-04T12:22:32;94469.91;;;47.05;28.48
9721;BME280;4899;42.644;23.366;2022-07-04T12:25:00;94452.09;;;45.46;28.44
9721;BME280;4899;42.644;23.366;2022-07-04T12:27:28;94459.34;;;46.14;28.00
9721;BME280;4899;42.644;23.366;2022-07-04T12:29:57;94443.03;;;45.09;29.47
9721;BME280;4899;42.644;23.366;2022-07-04T12:32:43;94436.25;;;46.07;27.49
9721;BME280;4899;42.644;23.366;2022-07-04T12:35:36;94450.09;;;46.45;26.56
9721;BME280;4899;42.644;23.366;2022-07-04T12:38:04;94449.78;;;46.28;27.60
9721;BME280;4899;42.644;23.366;2022-07-04T12:40:31;94442.59;;;46.82;27.73
9721;BME280;4899;42.644;23.366;2022-07-04T12:42:59;94432.38;;;46.67;27.07
9721;BME280;4899;42.644;23.366;2022-07-04T12:45:26;94444.81;;;46.99;27.41
9721;BME280;4899;42.644;23.366;2022-07-04T12:48:14;94444.13;;;46.54;26.72
9721;BME280;4899;42.644;23.366;2022-07-04T12:50:43;94415.25;;;46.51;26.95
9721;BME280;4899;42.644;23.366;2022-07-04T12:53:10;94440.97;;;46.07;28.43
9721;BME280;4899;42.644;23.366;2022-07-04T12:55:37;94393.81;;;45.83;28.70
9721;BME280;4899;42.644;23.366;2022-07-04T12:58:05;94442.19;;;46.34;28.79
9721;BME280;4899;42.644;23.366;2022-07-04T13:00:31;94436.31;;;46.58;28.09
9721;BME280;4899;42.644;23.366;2022-07-04T13:02:58;94412.94;;;46.71;28.02
9721;BME280;4899;42.644;23.366;2022-07-04T13:05:25;94426.66;;;47.01;27.78
9721;BME280;4899;42.644;23.366;2022-07-04T13:07:54;94430.81;;;46.87;27.46
9721;BME280;4899;42.644;23.366;2022-07-04T13:10:21;94401.59;;;47.10;27.07
9721;BME280;4899;42.644;23.366;2022-07-04T13:12:48;94433.56;;;47.02;26.95
9721;BME280;4899;42.644;23.366;2022-07-04T13:15:15;94406.78;;;46.34;27.43